Time;durP1;ratioP1;P1;durP2;ratioP2;P2;SDS_P1;SDS_P2;PMS_P1;PMS_P2;Temp;Humidity;BMP_temperature;BMP_pressure;BME280_temperature;BME280_humidity;BME280_pressure;Samples;Min_cycle;Max_cycle;Signal;HPM_P1;HPM_P2
2023/01/24 00:00:39;;;;;;;28.88;11.93;;;;;;;;;;4973624;28;20105;-73
2023/01/24 00:03:11;;;;;;;25.38;13.05;;;;;;;;;;4987078;28;20062;-73
2023/01/24 00:05:38;;;;;;;26.38;12.52;;;;;;;;;;4973480;28;20026;-72
2023/01/24 00:08:04;;;;;;;26.85;12.60;;;;;;;;;;4974224;28;20030;-73
2023/01/24 00:10:29;;;;;;;28.65;13.38;;;;;;;;;;4973690;28;20396;-74
2023/01/24 00:12:55;;;;;;;29.77;12.93;;;;;;;;;;4974099;28;20560;-73
2023/01/24 00:15:21;;;;;;;23.27;12.65;;;;;;;;;;4976719;28;20049;-73
2023/01/24 00:17:46;;;;;;;33.88;16.00;;;;;;;;;;4987090;28;20078;-73
2023/01/24 00:20:12;;;;;;;33.63;15.55;;;;;;;;;;4973085;28;20050;-73
2023/01/24 00:22:38;;;;;;;34.58;15.80;;;;;;;;;;4973850;28;20019;-73
2023/01/24 00:25:04;;;;;;;33.80;15.02;;;;;;;;;;4972376;28;20081;-73
2023/01/24 00:27:31;;;;;;;29.25;15.30;;;;;;;;;;4973820;28;20109;-73
2023/01/24 00:29:57;;;;;;;28.70;14.30;;;;;;;;;;4973067;28;20081;-73
2023/01/24 00:32:23;;;;;;;25.42;11.13;;;;;;;;;;4991460;28;20026;-73
2023/01/24 00:34:49;;;;;;;23.10;12.48;;;;;;;;;;4993420;28;20035;-73
2023/01/24 00:37:14;;;;;;;24.95;11.55;;;;;;;;;;4972251;28;20022;-74
2023/01/24 00:39:40;;;;;;;28.50;12.05;;;;;;;;;;4987884;28;20041;-73
2023/01/24 00:42:06;;;;;;;26.33;12.30;;;;;;;;;;4988239;28;20041;-73
2023/01/24 00:44:32;;;;;;;23.25;11.93;;;;;;;;;;4973235;28;20039;-74
2023/01/24 00:46:58;;;;;;;23.23;11.13;;;;;;;;;;4988781;28;20022;-73
2023/01/24 00:49:23;;;;;;;25.75;11.60;;;;;;;;;;4968289;28;20050;-73
2023/01/24 00:51:49;;;;;;;25.85;11.35;;;;;;;;;;4968780;28;20027;-73
2023/01/24 00:54:15;;;;;;;22.95;11.95;;;;;;;;;;4987847;28;20031;-73
2023/01/24 00:56:41;;;;;;;19.40;11.73;;;;;;;;;;4988196;28;20023;-74
2023/01/24 00:59:07;;;;;;;27.20;12.23;;;;;;;;;;4987488;28;20381;-73
2023/01/24 01:01:32;;;;;;;20.17;11.23;;;;;;;;;;4972775;28;20030;-73
2023/01/24 01:03:58;;;;;;;24.38;12.15;;;;;;;;;;4971266;28;20126;-73
2023/01/24 01:06:25;;;;;;;25.02;11.70;;;;;;;;;;4973078;28;20097;-74
2023/01/24 01:08:51;;;;;;;27.15;11.55;;;;;;;;;;4987913;28;20507;-73
2023/01/24 01:11:18;;;;;;;23.25;11.27;;;;;;;;;;4971309;28;20388;-73
2023/01/24 01:13:48;;;;;;;29.33;12.63;;;;;;;;;;4987688;28;20523;-73
2023/01/24 01:16:17;;;;;;;24.75;11.95;;;;;;;;;;4972861;28;20027;-73
2023/01/24 01:18:44;;;;;;;25.70;12.60;;;;;;;;;;4972616;28;20392;-73
2023/01/24 01:21:12;;;;;;;22.58;12.52;;;;;;;;;;4987490;28;20037;-74
2023/01/24 01:23:38;;;;;;;21.67;12.18;;;;;;;;;;4987477;28;20046;-73
2023/01/24 01:26:07;;;;;;;25.45;12.18;;;;;;;;;;4972724;28;20113;-73
2023/01/24 01:28:33;;;;;;;26.52;12.60;;;;;;;;;;4987669;28;20033;-74
2023/01/24 01:30:59;;;;;;;26.50;13.45;;;;;;;;;;4987149;28;20055;-73
2023/01/24 01:33:25;;;;;;;25.35;12.73;;;;;;;;;;4987228;28;20061;-73
2023/01/24 01:35:51;;;;;;;27.08;14.55;;;;;;;;;;4981192;28;20485;-73
2023/01/24 01:38:18;;;;;;;30.00;15.68;;;;;;;;;;4987751;28;20046;-74
2023/01/24 01:40:45;;;;;;;25.73;14.82;;;;;;;;;;4986969;28;20031;-74
2023/01/24 01:43:16;;;;;;;28.75;13.35;;;;;;;;;;4972735;28;20050;-74
2023/01/24 01:45:44;;;;;;;24.80;14.27;;;;;;;;;;4972540;28;20031;-73
2023/01/24 01:48:36;;;;;;;28.65;13.95;;;;;;;;;;4972440;28;20399;-73
2023/01/24 01:51:16;;;;;;;24.85;12.57;;;;;;;;;;4986907;28;20037;-72
2023/01/24 01:54:18;;;;;;;21.45;13.73;;;;;;;;;;4972593;28;20080;-73
2023/01/24 01:56:55;;;;;;;20.85;13.23;;;;;;;;;;4977980;28;20097;-72
2023/01/24 01:59:27;;;;;;;21.48;13.75;;;;;;;;;;4981358;28;20031;-73
2023/01/24 02:01:56;;;;;;;27.98;16.83;;;;;;;;;;4991897;28;20107;-73
2023/01/24 02:04:29;;;;;;;30.02;18.23;;;;;;;;;;4995519;28;20457;-73
2023/01/24 02:06:58;;;;;;;38.10;16.35;;;;;;;;;;4971360;28;20039;-73
2023/01/24 02:09:28;;;;;;;29.25;16.25;;;;;;;;;;4972285;28;20038;-73
2023/01/24 02:11:58;;;;;;;27.73;15.75;;;;;;;;;;4982515;28;20548;-73
2023/01/24 02:17:11;;;;;;;23.00;13.23;;;;;;;;;;4962088;28;20085;-73
2023/01/24 02:19:41;;;;;;;25.50;15.05;;;;;;;;;;4986359;28;20055;-73
2023/01/24 02:22:36;;;;;;;23.33;14.07;;;;;;;;;;4972066;28;20038;-73
2023/01/24 02:25:32;;;;;;;27.65;15.95;;;;;;;;;;4983744;28;20382;-73
2023/01/24 02:27:59;;;;;;;29.25;16.90;;;;;;;;;;4987056;28;20588;-73
2023/01/24 02:30:25;;;;;;;27.20;15.23;;;;;;;;;;4989696;28;20034;-73
2023/01/24 02:32:51;;;;;;;21.75;13.70;;;;;;;;;;4990876;28;20064;-73
2023/01/24 02:35:24;;;;;;;27.30;14.13;;;;;;;;;;4975691;28;20077;-73
2023/01/24 02:37:50;;;;;;;22.70;14.10;;;;;;;;;;4990755;28;20054;-73
2023/01/24 02:40:17;;;;;;;23.30;13.43;;;;;;;;;;4975430;28;20122;-73
2023/01/24 02:42:43;;;;;;;17.52;11.23;;;;;;;;;;4969601;28;20050;-73
2023/01/24 02:45:30;;;;;;;18.42;10.95;;;;;;;;;;4987715;28;20484;-73
2023/01/24 02:47:57;;;;;;;19.95;11.50;;;;;;;;;;4987512;28;20035;-72
2023/01/24 02:50:27;;;;;;;22.60;12.98;;;;;;;;;;4968139;28;20027;-73
2023/01/24 02:58:05;;;;;;;18.77;10.88;;;;;;;;;;4988162;28;20026;-73
2023/01/24 02:58:24;;;;;;;24.60;12.52;;;;;;;;;;4980094;28;20037;-73
2023/01/24 03:00:50;;;;;;;18.65;11.38;;;;;;;;;;4975068;28;20027;-72
2023/01/24 03:03:17;;;;;;;22.85;11.15;;;;;;;;;;4977579;28;20051;-73
2023/01/24 03:05:57;;;;;;;20.65;11.40;;;;;;;;;;4995971;28;20019;-74
2023/01/24 03:08:30;;;;;;;23.30;9.82;;;;;;;;;;4995721;28;20023;-73
2023/01/24 03:10:58;;;;;;;27.02;9.88;;;;;;;;;;4995000;28;20043;-73
2023/01/24 03:35:29;;;;;;;17.05;9.40;;;;;;;;;;4989575;28;20034;-73
2023/01/24 03:40:40;;;;;;;17.25;9.07;;;;;;;;;;4984886;28;20453;-73
2023/01/24 03:43:06;;;;;;;13.77;8.23;;;;;;;;;;4971128;28;20065;-74
2023/01/24 03:45:38;;;;;;;15.50;10.07;;;;;;;;;;4981805;28;20027;-74
2023/01/24 03:48:12;;;;;;;13.68;8.40;;;;;;;;;;4989664;28;20113;-74
2023/01/24 03:53:30;;;;;;;11.80;7.47;;;;;;;;;;5008797;28;19928;-73
2023/01/24 03:55:58;;;;;;;13.93;7.63;;;;;;;;;;4996171;28;20035;-73
2023/01/24 03:58:27;;;;;;;17.80;7.90;;;;;;;;;;4978557;28;20033;-72
2023/01/24 04:00:53;;;;;;;13.40;8.15;;;;;;;;;;4985506;28;20059;-73
2023/01/24 04:03:39;;;;;;;11.90;7.32;;;;;;;;;;4962097;28;20121;-73
2023/01/24 04:06:05;;;;;;;10.00;6.53;;;;;;;;;;4985806;28;20127;-73
2023/01/24 04:08:31;;;;;;;7.53;6.07;;;;;;;;;;4974121;28;20449;-73
2023/01/24 04:10:57;;;;;;;9.30;6.30;;;;;;;;;;4995179;28;20129;-73
2023/01/24 04:13:24;;;;;;;10.52;7.03;;;;;;;;;;4998081;28;20512;-74
2023/01/24 04:15:50;;;;;;;12.40;7.18;;;;;;;;;;4972180;28;20050;-73
2023/01/24 04:18:36;;;;;;;11.27;7.20;;;;;;;;;;4974539;28;20568;-73
2023/01/24 04:21:03;;;;;;;15.32;7.10;;;;;;;;;;4980855;28;20038;-73
2023/01/24 04:23:30;;;;;;;16.60;7.55;;;;;;;;;;5009177;28;20026;-73
2023/01/24 04:25:58;;;;;;;12.05;7.30;;;;;;;;;;5003606;28;20485;-73
2023/01/24 04:28:26;;;;;;;12.48;8.02;;;;;;;;;;4999027;28;20084;-73
2023/01/24 04:31:00;;;;;;;14.07;8.25;;;;;;;;;;4979929;28;20035;-73
2023/01/24 04:33:45;;;;;;;12.38;7.82;;;;;;;;;;4973843;28;20051;-73
2023/01/24 04:36:12;;;;;;;12.35;7.68;;;;;;;;;;4988486;28;20097;-73
2023/01/24 04:38:39;;;;;;;13.43;8.07;;;;;;;;;;4990229;28;20081;-73
2023/01/24 04:41:14;;;;;;;15.30;8.32;;;;;;;;;;4988288;28;20035;-73
2023/01/24 04:43:42;;;;;;;15.85;8.27;;;;;;;;;;4972272;28;20042;-73
2023/01/24 04:46:08;;;;;;;15.93;7.53;;;;;;;;;;4973538;28;20023;-73
2023/01/24 04:48:59;;;;;;;21.92;11.43;;;;;;;;;;4975311;28;20420;-73
2023/01/24 04:51:42;;;;;;;23.33;13.05;;;;;;;;;;4987900;28;20037;-74
2023/01/24 04:54:15;;;;;;;17.20;10.27;;;;;;;;;;4987733;28;20040;-73
2023/01/24 04:56:41;;;;;;;20.10;11.40;;;;;;;;;;4999715;28;20030;-73
2023/01/24 04:59:07;;;;;;;15.07;9.18;;;;;;;;;;4991953;28;20031;-73
2023/01/24 05:01:34;;;;;;;15.27;8.80;;;;;;;;;;4977980;28;20035;-73
2023/01/24 05:04:07;;;;;;;20.13;12.05;;;;;;;;;;4985135;28;20401;-74
2023/01/24 05:06:34;;;;;;;28.77;14.15;;;;;;;;;;4995840;28;20094;-73
2023/01/24 05:09:00;;;;;;;34.17;16.73;;;;;;;;;;4962076;28;20105;-74
2023/01/24 05:11:45;;;;;;;25.85;14.18;;;;;;;;;;4980699;28;20524;-73
2023/01/24 05:14:12;;;;;;;23.63;14.73;;;;;;;;;;4971286;28;20191;-75
2023/01/24 05:16:38;;;;;;;24.85;15.68;;;;;;;;;;4966489;28;20050;-73
2023/01/24 05:19:06;;;;;;;27.63;16.10;;;;;;;;;;4979581;28;20136;-74
2023/01/24 05:21:31;;;;;;;25.33;15.50;;;;;;;;;;4997031;28;20027;-73
2023/01/24 05:24:02;;;;;;;23.60;13.45;;;;;;;;;;4984333;28;20038;-75
2023/01/24 05:26:27;;;;;;;25.42;14.63;;;;;;;;;;4970824;28;20034;-73
2023/01/24 05:28:54;;;;;;;24.27;14.38;;;;;;;;;;4973421;28;20381;-73
2023/01/24 05:31:20;;;;;;;24.23;13.43;;;;;;;;;;4987287;28;20037;-74
2023/01/24 05:33:47;;;;;;;24.55;14.82;;;;;;;;;;4987472;28;20205;-74
2023/01/24 05:36:16;;;;;;;24.70;13.68;;;;;;;;;;4986483;28;20126;-73
2023/01/24 05:38:43;;;;;;;21.88;14.50;;;;;;;;;;4988450;28;20034;-73
2023/01/24 05:41:12;;;;;;;20.27;12.30;;;;;;;;;;4971294;28;20030;-74
2023/01/24 05:43:38;;;;;;;18.77;12.60;;;;;;;;;;4982210;28;20041;-73
2023/01/24 05:46:07;;;;;;;21.42;12.65;;;;;;;;;;4987121;28;20035;-73
2023/01/24 05:48:38;;;;;;;19.30;12.20;;;;;;;;;;4978656;28;20381;-74
2023/01/24 05:51:09;;;;;;;15.77;10.32;;;;;;;;;;4993498;28;20026;-74
2023/01/24 05:53:37;;;;;;;21.58;12.00;;;;;;;;;;4972890;28;20085;-74
2023/01/24 05:56:15;;;;;;;19.67;12.95;;;;;;;;;;4993803;28;20026;-73
2023/01/24 05:58:42;;;;;;;20.23;12.73;;;;;;;;;;4990711;28;20039;-74
2023/01/24 06:01:18;;;;;;;20.30;13.40;;;;;;;;;;4998714;28;20029;-73
2023/01/24 06:03:47;;;;;;;30.48;13.93;;;;;;;;;;4980191;28;20518;-74
2023/01/24 06:06:15;;;;;;;19.13;13.40;;;;;;;;;;4991048;28;20101;-74
2023/01/24 06:08:41;;;;;;;20.35;13.40;;;;;;;;;;4975093;28;20034;-73
2023/01/24 06:11:14;;;;;;;19.63;13.57;;;;;;;;;;4969984;28;20026;-74
2023/01/24 06:13:40;;;;;;;22.00;14.43;;;;;;;;;;4990685;28;20030;-74
2023/01/24 06:16:11;;;;;;;21.80;14.68;;;;;;;;;;4987392;28;20026;-74
2023/01/24 06:18:37;;;;;;;25.45;15.20;;;;;;;;;;4991503;28;20096;-74
2023/01/24 06:21:08;;;;;;;23.30;14.45;;;;;;;;;;4967730;28;20374;-74
2023/01/24 06:23:34;;;;;;;21.95;16.15;;;;;;;;;;4974339;28;20030;-74
2023/01/24 06:26:03;;;;;;;42.40;27.88;;;;;;;;;;4986189;28;20098;-76
2023/01/24 06:28:29;;;;;;;48.20;32.03;;;;;;;;;;4976386;28;20069;-75
2023/01/24 06:31:11;;;;;;;33.95;24.38;;;;;;;;;;4986618;28;20034;-77
2023/01/24 06:34:26;;;;;;;28.30;18.00;;;;;;;;;;4986085;28;20093;-75
2023/01/24 06:37:02;;;;;;;22.27;14.68;;;;;;;;;;4968136;28;20070;-76
2023/01/24 06:39:28;;;;;;;25.17;14.60;;;;;;;;;;4975002;28;20476;-75
2023/01/24 06:41:54;;;;;;;27.63;16.88;;;;;;;;;;4986932;28;20039;-77
2023/01/24 06:44:20;;;;;;;22.08;15.25;;;;;;;;;;4975243;28;20057;-79
2023/01/24 06:46:45;;;;;;;26.58;15.70;;;;;;;;;;4973614;28;20117;-75
2023/01/24 06:49:11;;;;;;;25.80;15.40;;;;;;;;;;4975120;28;20476;-76
2023/01/24 06:51:37;;;;;;;27.77;17.30;;;;;;;;;;4974897;28;20059;-76
2023/01/24 06:54:04;;;;;;;30.02;16.38;;;;;;;;;;4986243;28;20035;-75
2023/01/24 06:56:30;;;;;;;22.55;15.68;;;;;;;;;;4973316;28;20180;-75
2023/01/24 06:58:56;;;;;;;24.23;14.32;;;;;;;;;;4981798;28;20140;-77
2023/01/24 07:01:21;;;;;;;19.73;12.80;;;;;;;;;;4987891;28;20501;-76
2023/01/24 07:03:48;;;;;;;31.88;18.65;;;;;;;;;;4974063;28;20142;-77
2023/01/24 07:06:15;;;;;;;24.30;13.77;;;;;;;;;;4974752;28;20321;-76
2023/01/24 07:08:41;;;;;;;27.73;17.25;;;;;;;;;;4989634;28;20031;-76
2023/01/24 07:11:06;;;;;;;31.02;17.55;;;;;;;;;;4974663;28;20129;-76
2023/01/24 07:13:33;;;;;;;25.15;15.43;;;;;;;;;;4988140;28;20039;-76
2023/01/24 07:16:02;;;;;;;26.67;14.00;;;;;;;;;;4972774;28;20511;-76
2023/01/24 07:18:28;;;;;;;21.17;13.63;;;;;;;;;;4964885;28;20102;-75
2023/01/24 07:20:55;;;;;;;24.35;13.52;;;;;;;;;;4974650;28;20030;-76
2023/01/24 07:23:28;;;;;;;23.27;14.20;;;;;;;;;;4986742;28;20058;-76
2023/01/24 07:25:54;;;;;;;24.35;14.85;;;;;;;;;;4974538;28;20465;-76
2023/01/24 07:28:20;;;;;;;22.88;15.55;;;;;;;;;;4971919;28;20031;-76
2023/01/24 07:30:48;;;;;;;23.88;13.77;;;;;;;;;;4988552;28;20213;-76
2023/01/24 07:33:16;;;;;;;20.45;12.65;;;;;;;;;;4973167;28;20496;-75
2023/01/24 07:35:43;;;;;;;23.15;12.70;;;;;;;;;;4974557;28;20039;-76
2023/01/24 07:38:09;;;;;;;19.58;12.30;;;;;;;;;;4972144;28;20130;-77
2023/01/24 07:40:36;;;;;;;20.05;10.23;;;;;;;;;;4973866;28;20054;-76
2023/01/24 07:43:03;;;;;;;22.05;13.65;;;;;;;;;;4974149;28;20507;-76
2023/01/24 07:45:28;;;;;;;19.10;12.63;;;;;;;;;;4974526;28;20062;-77
2023/01/24 07:47:56;;;;;;;27.27;15.98;;;;;;;;;;4974117;28;20061;-76
2023/01/24 07:50:26;;;;;;;20.85;12.10;;;;;;;;;;4973715;28;20125;-74
2023/01/24 07:52:53;;;;;;;20.27;10.93;;;;;;;;;;4965880;28;20042;-73
2023/01/24 07:55:21;;;;;;;22.25;12.02;;;;;;;;;;4972636;28;20054;-72
2023/01/24 07:57:47;;;;;;;28.50;14.45;;;;;;;;;;4974164;28;20051;-76
2023/01/24 08:00:13;;;;;;;33.33;18.13;;;;;;;;;;4976074;28;20042;-74
2023/01/24 08:02:41;;;;;;;40.38;14.07;;;;;;;;;;4988324;28;20139;-74
2023/01/24 08:05:07;;;;;;;18.13;9.68;;;;;;;;;;4988714;28;20038;-74
2023/01/24 08:07:33;;;;;;;11.73;7.30;;;;;;;;;;4965520;28;20133;-76
2023/01/24 08:09:59;;;;;;;14.65;6.88;;;;;;;;;;4988541;28;20101;-76
2023/01/24 08:12:24;;;;;;;16.20;8.48;;;;;;;;;;4973477;28;20035;-75
2023/01/24 08:14:50;;;;;;;13.45;7.65;;;;;;;;;;4973457;28;20031;-73
2023/01/24 08:17:16;;;;;;;18.48;8.32;;;;;;;;;;4965750;28;20030;-74
2023/01/24 08:19:42;;;;;;;15.02;7.65;;;;;;;;;;4965334;28;20369;-75
2023/01/24 08:22:08;;;;;;;23.67;8.88;;;;;;;;;;4972387;28;20106;-75
2023/01/24 08:24:34;;;;;;;38.08;9.73;;;;;;;;;;4973539;28;20559;-76
2023/01/24 08:27:02;;;;;;;33.72;10.50;;;;;;;;;;4979150;28;20427;-76
2023/01/24 08:29:28;;;;;;;95.13;16.45;;;;;;;;;;4972741;28;20055;-75
2023/01/24 08:31:54;;;;;;;64.53;11.32;;;;;;;;;;4972948;28;20038;-76
2023/01/24 08:34:20;;;;;;;77.10;10.75;;;;;;;;;;4965116;28;20117;-77
2023/01/24 08:36:47;;;;;;;53.85;9.15;;;;;;;;;;4964789;28;20039;-74
2023/01/24 08:39:13;;;;;;;73.40;11.32;;;;;;;;;;4966139;28;20031;-74
2023/01/24 08:41:39;;;;;;;81.63;12.02;;;;;;;;;;4963343;28;20039;-75
2023/01/24 08:44:05;;;;;;;49.00;9.32;;;;;;;;;;4965540;28;20082;-75
2023/01/24 08:46:32;;;;;;;81.97;12.73;;;;;;;;;;4965019;28;20039;-74
2023/01/24 08:48:58;;;;;;;112.78;12.52;;;;;;;;;;4968118;28;20035;-75
2023/01/24 08:51:24;;;;;;;28.27;6.18;;;;;;;;;;4969271;28;20041;-76
2023/01/24 08:53:50;;;;;;;84.65;14.13;;;;;;;;;;4970993;28;20031;-76
2023/01/24 08:56:15;;;;;;;16.45;6.15;;;;;;;;;;4974481;28;20216;-76
2023/01/24 08:58:43;;;;;;;24.13;8.93;;;;;;;;;;4965631;28;20055;-76
2023/01/24 09:01:09;;;;;;;44.78;10.68;;;;;;;;;;4983897;28;20032;-76
2023/01/24 09:03:35;;;;;;;46.97;10.77;;;;;;;;;;4983983;28;20027;-75
2023/01/24 09:06:03;;;;;;;31.48;6.82;;;;;;;;;;4967738;28;20046;-76
2023/01/24 09:08:29;;;;;;;54.55;9.95;;;;;;;;;;4969367;28;20019;-75
2023/01/24 09:11:00;;;;;;;32.35;6.93;;;;;;;;;;4972628;28;20049;-75
2023/01/24 09:13:25;;;;;;;15.80;5.30;;;;;;;;;;4979458;28;20106;-76
2023/01/24 09:15:51;;;;;;;38.03;6.65;;;;;;;;;;4987662;28;20097;-76
2023/01/24 09:18:17;;;;;;;11.32;4.82;;;;;;;;;;4972597;28;20497;-75
2023/01/24 09:20:44;;;;;;;40.90;7.57;;;;;;;;;;4964252;28;20039;-75
2023/01/24 09:23:12;;;;;;;29.33;6.80;;;;;;;;;;4987196;28;20039;-77
2023/01/24 09:25:39;;;;;;;37.53;6.45;;;;;;;;;;4972578;28;20030;-76
2023/01/24 09:28:05;;;;;;;10.65;4.70;;;;;;;;;;4972501;28;20292;-76
2023/01/24 09:30:31;;;;;;;29.92;6.70;;;;;;;;;;4972096;28;20134;-75
2023/01/24 09:32:57;;;;;;;12.20;5.40;;;;;;;;;;4971955;28;20035;-75
2023/01/24 09:35:22;;;;;;;41.08;8.02;;;;;;;;;;4970621;28;20440;-75
2023/01/24 09:37:51;;;;;;;22.13;5.07;;;;;;;;;;4986347;28;20086;-75
2023/01/24 09:40:42;;;;;;;30.13;5.72;;;;;;;;;;4971404;28;20018;-75
2023/01/24 09:43:29;;;;;;;32.22;6.13;;;;;;;;;;4972062;28;20034;-75
2023/01/24 09:46:22;;;;;;;16.25;4.80;;;;;;;;;;4960549;28;20044;-75
2023/01/24 09:48:54;;;;;;;61.17;9.70;;;;;;;;;;4971117;28;20034;-76
2023/01/24 09:51:25;;;;;;;24.02;5.40;;;;;;;;;;4971504;28;20072;-76
2023/01/24 09:53:57;;;;;;;8.85;4.95;;;;;;;;;;4970841;28;20046;-74
2023/01/24 09:56:33;;;;;;;17.17;4.88;;;;;;;;;;4970259;28;20485;-75
2023/01/24 09:59:23;;;;;;;33.35;7.03;;;;;;;;;;4971148;28;20066;-74
2023/01/24 10:01:51;;;;;;;12.00;4.90;;;;;;;;;;4970471;28;20031;-74
2023/01/24 10:04:31;;;;;;;13.60;4.45;;;;;;;;;;4967625;28;20027;-75
2023/01/24 10:07:36;;;;;;;17.08;5.65;;;;;;;;;;4971900;28;20059;-76
2023/01/24 10:10:11;;;;;;;21.65;6.35;;;;;;;;;;4948972;29;20032;-74
2023/01/24 10:13:02;;;;;;;11.70;3.88;;;;;;;;;;4945774;29;20035;-74
2023/01/24 10:15:44;;;;;;;16.90;4.07;;;;;;;;;;4945351;29;20126;-72
2023/01/24 10:18:13;;;;;;;4.18;1.90;;;;;;;;;;4946028;29;20039;-73
2023/01/24 10:21:14;;;;;;;7.53;3.75;;;;;;;;;;4949263;29;20043;-73
2023/01/24 10:23:50;;;;;;;5.10;2.33;;;;;;;;;;4948954;29;20512;-74
2023/01/24 10:26:20;;;;;;;3.85;2.20;;;;;;;;;;4949978;29;20095;-75
2023/01/24 10:28:52;;;;;;;6.85;2.30;;;;;;;;;;4950115;28;20070;-72
2023/01/24 10:31:30;;;;;;;41.55;5.03;;;;;;;;;;4946919;28;20643;-73
2023/01/24 10:34:12;;;;;;;14.77;3.17;;;;;;;;;;4948501;29;20043;-73
2023/01/24 10:36:53;;;;;;;4.95;1.63;;;;;;;;;;4949493;29;20051;-72
2023/01/24 10:39:18;;;;;;;5.80;1.85;;;;;;;;;;4948988;29;20062;-76
2023/01/24 10:41:44;;;;;;;3.40;1.90;;;;;;;;;;4949646;29;20035;-74
2023/01/24 10:44:17;;;;;;;6.88;2.42;;;;;;;;;;4949206;29;20038;-72
2023/01/24 10:46:55;;;;;;;8.73;2.00;;;;;;;;;;4958867;28;20046;-73
2023/01/24 10:49:28;;;;;;;3.60;1.30;;;;;;;;;;4971577;28;20027;-75
2023/01/24 10:52:18;;;;;;;3.25;1.77;;;;;;;;;;4967552;28;20090;-75
2023/01/24 10:54:57;;;;;;;17.92;3.30;;;;;;;;;;4974640;28;20053;-74
2023/01/24 10:57:42;;;;;;;8.57;2.80;;;;;;;;;;4967442;28;20035;-74
2023/01/24 11:00:33;;;;;;;16.30;3.17;;;;;;;;;;4974017;28;20038;-73
2023/01/24 11:03:03;;;;;;;17.30;4.10;;;;;;;;;;4974773;28;20035;-74
2023/01/24 11:05:56;;;;;;;16.45;2.92;;;;;;;;;;4975694;28;20038;-76
2023/01/24 11:08:33;;;;;;;5.15;2.70;;;;;;;;;;4975072;28;20069;-74
2023/01/24 11:11:00;;;;;;;10.20;2.67;;;;;;;;;;4974086;28;20042;-74
2023/01/24 11:13:40;;;;;;;18.98;5.03;;;;;;;;;;4974415;28;20077;-75
2023/01/24 11:16:15;;;;;;;8.63;2.40;;;;;;;;;;4973815;28;20038;-74
2023/01/24 11:18:47;;;;;;;9.45;3.33;;;;;;;;;;4972809;28;20046;-74
2023/01/24 11:21:18;;;;;;;5.55;2.40;;;;;;;;;;4968735;28;20049;-73
2023/01/24 11:23:44;;;;;;;9.25;3.88;;;;;;;;;;4973902;28;20038;-72
2023/01/24 11:26:32;;;;;;;5.80;2.50;;;;;;;;;;4974896;28;20023;-73
2023/01/24 11:29:05;;;;;;;11.32;3.40;;;;;;;;;;4974023;28;20428;-74
2023/01/24 11:31:43;;;;;;;23.08;5.90;;;;;;;;;;4973532;28;20175;-73
2023/01/24 11:34:45;;;;;;;9.95;3.13;;;;;;;;;;4973971;28;20031;-74
2023/01/24 11:37:38;;;;;;;9.60;2.72;;;;;;;;;;4971380;28;20054;-74
2023/01/24 11:40:34;;;;;;;5.53;1.90;;;;;;;;;;4963087;28;20563;-74
2023/01/24 11:43:12;;;;;;;8.35;1.90;;;;;;;;;;4962884;28;20031;-74
2023/01/24 11:45:59;;;;;;;4.30;1.98;;;;;;;;;;4971269;28;20179;-74
2023/01/24 11:48:44;;;;;;;10.60;3.67;;;;;;;;;;4971304;28;20219;-74
2023/01/24 11:59:04;;;;;;;7.40;2.30;;;;;;;;;;4973280;28;20752;-72
2023/01/24 12:01:52;;;;;;;5.57;1.65;;;;;;;;;;4963873;28;20034;-74
2023/01/24 12:04:47;;;;;;;11.45;3.30;;;;;;;;;;4969360;28;20456;-72
2023/01/24 12:07:45;;;;;;;6.82;2.30;;;;;;;;;;4963428;28;20039;-73
2023/01/24 12:10:46;;;;;;;3.17;1.75;;;;;;;;;;4962314;28;20495;-74
2023/01/24 12:13:39;;;;;;;4.35;1.70;;;;;;;;;;4951415;28;20047;-74
2023/01/24 12:16:20;;;;;;;15.60;2.10;;;;;;;;;;4950049;28;20039;-72
2023/01/24 12:19:01;;;;;;;7.28;2.58;;;;;;;;;;4967238;28;20538;-75
2023/01/24 12:21:29;;;;;;;3.97;1.60;;;;;;;;;;4970944;28;20542;-74
2023/01/24 12:24:08;;;;;;;2.95;1.70;;;;;;;;;;4971385;28;20027;-73
2023/01/24 12:26:49;;;;;;;2.17;1.40;;;;;;;;;;4965064;28;20031;-73
2023/01/24 12:29:18;;;;;;;3.17;1.48;;;;;;;;;;4973437;28;20050;-74
2023/01/24 12:32:05;;;;;;;3.92;1.70;;;;;;;;;;4960017;28;20019;-73
2023/01/24 12:34:37;;;;;;;3.72;1.60;;;;;;;;;;4964450;28;20098;-72
2023/01/24 12:37:19;;;;;;;6.20;2.17;;;;;;;;;;4972814;28;20062;-73
2023/01/24 12:39:56;;;;;;;6.30;2.40;;;;;;;;;;4973519;28;20038;-73
2023/01/24 12:42:57;;;;;;;5.65;2.40;;;;;;;;;;4972351;28;20045;-74
2023/01/24 12:45:33;;;;;;;5.30;2.30;;;;;;;;;;4973426;28;20089;-74
2023/01/24 12:48:22;;;;;;;5.35;2.50;;;;;;;;;;4973451;28;20035;-74
2023/01/24 12:51:02;;;;;;;6.47;2.72;;;;;;;;;;4973828;28;20101;-75
2023/01/24 12:53:34;;;;;;;3.72;1.90;;;;;;;;;;4964045;28;20035;-74
2023/01/24 12:56:10;;;;;;;7.20;2.17;;;;;;;;;;4973303;28;20039;-75
2023/01/24 12:58:39;;;;;;;4.78;2.00;;;;;;;;;;4966751;28;20293;-72
2023/01/24 13:01:16;;;;;;;4.35;1.80;;;;;;;;;;4972953;28;20030;-73
2023/01/24 13:04:19;;;;;;;3.92;2.22;;;;;;;;;;4971630;28;20047;-74
2023/01/24 13:06:59;;;;;;;5.53;2.40;;;;;;;;;;4971612;28;20041;-74
2023/01/24 13:09:52;;;;;;;4.85;2.38;;;;;;;;;;4972934;28;20038;-74
2023/01/24 13:12:27;;;;;;;6.82;2.38;;;;;;;;;;4967441;28;20050;-73
2023/01/24 13:14:58;;;;;;;10.75;3.28;;;;;;;;;;4973091;28;20034;-74
2023/01/24 13:17:30;;;;;;;7.72;2.97;;;;;;;;;;4972939;28;20026;-74
2023/01/24 13:20:21;;;;;;;8.93;3.28;;;;;;;;;;4972919;28;20034;-74
2023/01/24 13:23:03;;;;;;;11.40;3.95;;;;;;;;;;4936586;29;20089;-74
2023/01/24 13:26:19;;;;;;;8.88;4.05;;;;;;;;;;4964419;28;20488;-74
2023/01/24 13:28:54;;;;;;;10.35;3.70;;;;;;;;;;4932198;28;20054;-72
2023/01/24 13:31:27;;;;;;;8.25;3.63;;;;;;;;;;4973357;28;20114;-73
2023/01/24 13:34:02;;;;;;;;;;;;;;;;;;4973365;28;20046;-74
2023/01/24 13:36:33;;;;;;;13.38;4.80;;;;;;;;;;4964923;28;19918;-75
2023/01/24 13:39:00;;;;;;;5.13;2.90;;;;;;;;;;4972942;28;20050;-73
2023/01/24 13:41:25;;;;;;;5.85;3.08;;;;;;;;;;4977040;28;20082;-74
2023/01/24 13:44:07;;;;;;;13.98;4.80;;;;;;;;;;4968566;28;20043;-74
2023/01/24 13:46:43;;;;;;;6.00;3.10;;;;;;;;;;4972674;28;20455;-72
2023/01/24 13:49:27;;;;;;;6.03;3.35;;;;;;;;;;4972249;28;20038;-72
2023/01/24 13:51:54;;;;;;;7.07;2.58;;;;;;;;;;4965664;28;20043;-73
2023/01/24 13:54:31;;;;;;;8.93;4.32;;;;;;;;;;4955259;28;20114;-73
2023/01/24 13:57:09;;;;;;;8.73;4.70;;;;;;;;;;4972183;28;20038;-74
2023/01/24 13:59:38;;;;;;;8.45;3.28;;;;;;;;;;4972581;28;20031;-74
2023/01/24 14:02:39;;;;;;;4.70;2.60;;;;;;;;;;4972710;28;20023;-72
2023/01/24 14:05:27;;;;;;;7.75;3.67;;;;;;;;;;4972503;28;20049;-73
2023/01/24 14:07:57;;;;;;;12.00;4.20;;;;;;;;;;4972414;28;20065;-71
2023/01/24 14:10:38;;;;;;;8.88;3.80;;;;;;;;;;4972688;28;20066;-72
2023/01/24 14:13:24;;;;;;;7.65;3.40;;;;;;;;;;4972750;28;20041;-72
2023/01/24 14:15:51;;;;;;;7.93;3.63;;;;;;;;;;4972053;28;20043;-72
2023/01/24 14:18:58;;;;;;;10.02;3.60;;;;;;;;;;4971864;28;20102;-74
2023/01/24 14:21:29;;;;;;;6.72;3.70;;;;;;;;;;4968506;28;20197;-73
2023/01/24 14:24:00;;;;;;;8.98;2.88;;;;;;;;;;4972863;28;20046;-73
2023/01/24 14:26:33;;;;;;;4.63;2.50;;;;;;;;;;4975638;28;20039;-75
2023/01/24 14:29:03;;;;;;;5.60;3.00;;;;;;;;;;4976135;28;20023;-74
2023/01/24 14:31:33;;;;;;;3.90;2.40;;;;;;;;;;4975567;28;20038;-73
2023/01/24 14:34:11;;;;;;;10.52;3.38;;;;;;;;;;4976065;28;20080;-74
2023/01/24 14:36:41;;;;;;;7.60;3.25;;;;;;;;;;4969826;28;20030;-75
2023/01/24 14:39:24;;;;;;;9.73;3.58;;;;;;;;;;4975810;28;20432;-73
2023/01/24 14:41:53;;;;;;;12.20;4.35;;;;;;;;;;4971516;28;20077;-74
2023/01/24 14:44:29;;;;;;;9.90;5.65;;;;;;;;;;4977762;28;20031;-74
2023/01/24 14:47:00;;;;;;;8.88;4.70;;;;;;;;;;4980312;28;20034;-72
2023/01/24 14:49:33;;;;;;;10.95;3.90;;;;;;;;;;4962379;28;20381;-74
2023/01/24 14:52:01;;;;;;;7.68;4.03;;;;;;;;;;4962626;28;20094;-74
2023/01/24 14:54:27;;;;;;;7.47;3.83;;;;;;;;;;4972985;28;20034;-74
2023/01/24 14:56:55;;;;;;;8.73;4.40;;;;;;;;;;4972650;28;20046;-73
2023/01/24 14:59:22;;;;;;;8.43;4.43;;;;;;;;;;4956102;28;20070;-74
2023/01/24 15:01:52;;;;;;;11.75;3.85;;;;;;;;;;4974550;28;20042;-74
2023/01/24 15:04:25;;;;;;;9.57;4.38;;;;;;;;;;4963911;28;20480;-74
2023/01/24 15:07:14;;;;;;;11.70;3.50;;;;;;;;;;4961163;28;20530;-74
2023/01/24 15:09:41;;;;;;;9.20;4.00;;;;;;;;;;4968390;28;20738;-75
2023/01/24 15:12:41;;;;;;;6.50;4.35;;;;;;;;;;4973984;28;20039;-74
2023/01/24 15:15:16;;;;;;;7.88;3.28;;;;;;;;;;4951632;28;20062;-73
2023/01/24 15:17:46;;;;;;;9.80;3.78;;;;;;;;;;4973309;28;20045;-73
2023/01/24 15:20:20;;;;;;;10.63;3.95;;;;;;;;;;4958060;28;20039;-73
2023/01/24 15:22:52;;;;;;;12.60;5.10;;;;;;;;;;4973268;28;20052;-72
2023/01/24 15:25:20;;;;;;;10.43;5.35;;;;;;;;;;4953190;28;20404;-73
2023/01/24 15:27:48;;;;;;;9.80;4.82;;;;;;;;;;4960566;28;20114;-73
2023/01/24 15:30:24;;;;;;;8.52;4.60;;;;;;;;;;4966658;28;20058;-74
2023/01/24 15:32:55;;;;;;;14.43;4.93;;;;;;;;;;4971470;28;20066;-73
2023/01/24 15:36:00;;;;;;;13.20;3.97;;;;;;;;;;4973230;28;20046;-74
2023/01/24 15:38:32;;;;;;;11.70;4.00;;;;;;;;;;4932815;29;20559;-75
2023/01/24 15:41:00;;;;;;;12.13;5.10;;;;;;;;;;4933236;29;20049;-74